sensor_id;sensor_type;location;lat;lon;timestamp;P1;durP1;ratioP1;P2;durP2;ratioP2
34565;SDS011;20803;42.676;26.348;2022-10-15T00:01:36;3.37;;;1.97;;
34565;SDS011;20803;42.676;26.348;2022-10-15T00:04:02;2.97;;;2.20;;
34565;SDS011;20803;42.676;26.348;2022-10-15T00:06:27;1.90;;;1.70;;
34565;SDS011;20803;42.676;26.348;2022-10-15T00:08:53;3.87;;;1.80;;
34565;SDS011;20803;42.676;26.348;2022-10-15T00:11:19;3.93;;;2.10;;
34565;SDS011;20803;42.676;26.348;2022-10-15T00:13:47;2.27;;;1.60;;
34565;SDS011;20803;42.676;26.348;2022-10-15T00:16:17;6.20;;;2.40;;
34565;SDS011;20803;42.676;26.348;2022-10-15T00:18:44;5.07;;;2.10;;
34565;SDS011;20803;42.676;26.348;2022-10-15T00:21:10;4.43;;;2.00;;
34565;SDS011;20803;42.676;26.348;2022-10-15T00:23:38;3.73;;;1.80;;
34565;SDS011;20803;42.676;26.348;2022-10-15T00:26:07;3.03;;;1.93;;
34565;SDS011;20803;42.676;26.348;2022-10-15T00:28:44;1.90;;;1.70;;
34565;SDS011;20803;42.676;26.348;2022-10-15T00:31:11;5.43;;;2.00;;
34565;SDS011;20803;42.676;26.348;2022-10-15T00:33:39;3.73;;;2.00;;
34565;SDS011;20803;42.676;26.348;2022-10-15T00:36:05;4.50;;;1.97;;
34565;SDS011;20803;42.676;26.348;2022-10-15T00:38:33;3.47;;;2.00;;
34565;SDS011;20803;42.676;26.348;2022-10-15T00:40:59;2.90;;;2.27;;
34565;SDS011;20803;42.676;26.348;2022-10-15T00:46:37;3.20;;;1.93;;
34565;SDS011;20803;42.676;26.348;2022-10-15T00:51:41;3.07;;;2.13;;
34565;SDS011;20803;42.676;26.348;2022-10-15T00:54:10;2.93;;;1.60;;
34565;SDS011;20803;42.676;26.348;2022-10-15T00:56:38;2.10;;;1.70;;
34565;SDS011;20803;42.676;26.348;2022-10-15T00:59:07;2.70;;;1.90;;
34565;SDS011;20803;42.676;26.348;2022-10-15T01:01:34;2.20;;;1.57;;
34565;SDS011;20803;42.676;26.348;2022-10-15T01:04:00;1.83;;;1.60;;
34565;SDS011;20803;42.676;26.348;2022-10-15T01:06:26;2.37;;;1.60;;
34565;SDS011;20803;42.676;26.348;2022-10-15T01:08:52;3.90;;;1.97;;
34565;SDS011;20803;42.676;26.348;2022-10-15T01:14:02;4.57;;;2.20;;
34565;SDS011;20803;42.676;26.348;2022-10-15T01:16:35;3.67;;;1.80;;
34565;SDS011;20803;42.676;26.348;2022-10-15T01:22:03;1.93;;;1.70;;
34565;SDS011;20803;42.676;26.348;2022-10-15T01:32:38;4.93;;;2.53;;
34565;SDS011;20803;42.676;26.348;2022-10-15T01:37:49;4.30;;;2.27;;
34565;SDS011;20803;42.676;26.348;2022-10-15T01:40:20;2.93;;;1.93;;
34565;SDS011;20803;42.676;26.348;2022-10-15T01:42:58;4.93;;;2.83;;
34565;SDS011;20803;42.676;26.348;2022-10-15T01:45:32;4.67;;;2.40;;
34565;SDS011;20803;42.676;26.348;2022-10-15T01:48:04;7.93;;;2.60;;
34565;SDS011;20803;42.676;26.348;2022-10-15T01:50:34;13.07;;;3.63;;
34565;SDS011;20803;42.676;26.348;2022-10-15T01:53:04;4.47;;;2.63;;
34565;SDS011;20803;42.676;26.348;2022-10-15T01:55:32;4.87;;;2.40;;
34565;SDS011;20803;42.676;26.348;2022-10-15T01:58:00;2.87;;;2.40;;
34565;SDS011;20803;42.676;26.348;2022-10-15T02:00:27;5.07;;;2.30;;
34565;SDS011;20803;42.676;26.348;2022-10-15T02:02:52;3.10;;;2.20;;
34565;SDS011;20803;42.676;26.348;2022-10-15T02:05:24;4.80;;;2.50;;
34565;SDS011;20803;42.676;26.348;2022-10-15T02:18:31;5.20;;;3.23;;
34565;SDS011;20803;42.676;26.348;2022-10-15T02:23:34;7.17;;;2.70;;
34565;SDS011;20803;42.676;26.348;2022-10-15T02:26:05;3.20;;;2.63;;
34565;SDS011;20803;42.676;26.348;2022-10-15T02:28:35;4.53;;;3.50;;
34565;SDS011;20803;42.676;26.348;2022-10-15T02:31:03;4.03;;;2.30;;
34565;SDS011;20803;42.676;26.348;2022-10-15T02:33:31;5.07;;;2.77;;
34565;SDS011;20803;42.676;26.348;2022-10-15T02:35:59;6.53;;;3.27;;
34565;SDS011;20803;42.676;26.348;2022-10-15T02:38:25;6.13;;;3.13;;
34565;SDS011;20803;42.676;26.348;2022-10-15T02:40:55;4.20;;;3.03;;
34565;SDS011;20803;42.676;26.348;2022-10-15T02:43:21;4.70;;;2.50;;
34565;SDS011;20803;42.676;26.348;2022-10-15T02:45:47;7.80;;;3.40;;
34565;SDS011;20803;42.676;26.348;2022-10-15T02:48:13;5.00;;;3.57;;
34565;SDS011;20803;42.676;26.348;2022-10-15T02:50:39;5.53;;;2.30;;
34565;SDS011;20803;42.676;26.348;2022-10-15T02:53:05;5.53;;;2.70;;
34565;SDS011;20803;42.676;26.348;2022-10-15T02:55:30;4.03;;;2.40;;
34565;SDS011;20803;42.676;26.348;2022-10-15T02:57:55;3.07;;;2.27;;
34565;SDS011;20803;42.676;26.348;2022-10-15T03:00:21;4.33;;;2.70;;
34565;SDS011;20803;42.676;26.348;2022-10-15T03:02:46;3.47;;;2.17;;
34565;SDS011;20803;42.676;26.348;2022-10-15T03:05:12;3.00;;;2.37;;
34565;SDS011;20803;42.676;26.348;2022-10-15T03:07:37;5.50;;;2.60;;
34565;SDS011;20803;42.676;26.348;2022-10-15T03:10:03;6.73;;;2.10;;
34565;SDS011;20803;42.676;26.348;2022-10-15T03:12:29;3.97;;;2.50;;
34565;SDS011;20803;42.676;26.348;2022-10-15T03:14:54;5.43;;;2.57;;
34565;SDS011;20803;42.676;26.348;2022-10-15T03:17:19;2.93;;;2.07;;
34565;SDS011;20803;42.676;26.348;2022-10-15T03:19:45;4.43;;;2.80;;
34565;SDS011;20803;42.676;26.348;2022-10-15T03:22:10;2.17;;;1.67;;
34565;SDS011;20803;42.676;26.348;2022-10-15T03:24:36;4.53;;;1.80;;
34565;SDS011;20803;42.676;26.348;2022-10-15T03:27:01;3.70;;;2.40;;
34565;SDS011;20803;42.676;26.348;2022-10-15T03:29:27;7.83;;;2.17;;
34565;SDS011;20803;42.676;26.348;2022-10-15T03:31:52;4.03;;;2.00;;
34565;SDS011;20803;42.676;26.348;2022-10-15T03:34:17;3.20;;;1.87;;
34565;SDS011;20803;42.676;26.348;2022-10-15T03:36:43;2.20;;;1.70;;
34565;SDS011;20803;42.676;26.348;2022-10-15T03:39:09;2.97;;;2.03;;
34565;SDS011;20803;42.676;26.348;2022-10-15T03:41:36;7.50;;;2.30;;
34565;SDS011;20803;42.676;26.348;2022-10-15T03:44:05;3.53;;;2.30;;
34565;SDS011;20803;42.676;26.348;2022-10-15T03:46:32;3.20;;;2.00;;
34565;SDS011;20803;42.676;26.348;2022-10-15T03:48:58;5.30;;;2.47;;
34565;SDS011;20803;42.676;26.348;2022-10-15T03:51:24;6.47;;;2.47;;
34565;SDS011;20803;42.676;26.348;2022-10-15T03:53:53;2.73;;;2.27;;
34565;SDS011;20803;42.676;26.348;2022-10-15T03:56:18;2.87;;;1.87;;
34565;SDS011;20803;42.676;26.348;2022-10-15T03:58:44;3.23;;;2.20;;
34565;SDS011;20803;42.676;26.348;2022-10-15T04:01:10;3.77;;;2.07;;
34565;SDS011;20803;42.676;26.348;2022-10-15T04:03:37;5.33;;;2.23;;
34565;SDS011;20803;42.676;26.348;2022-10-15T04:06:03;2.90;;;2.03;;
34565;SDS011;20803;42.676;26.348;2022-10-15T04:08:29;5.13;;;2.10;;
34565;SDS011;20803;42.676;26.348;2022-10-15T04:10:54;3.83;;;2.63;;
34565;SDS011;20803;42.676;26.348;2022-10-15T04:13:20;4.77;;;2.17;;
34565;SDS011;20803;42.676;26.348;2022-10-15T04:15:45;5.30;;;3.10;;
34565;SDS011;20803;42.676;26.348;2022-10-15T04:18:11;5.33;;;2.60;;
34565;SDS011;20803;42.676;26.348;2022-10-15T04:20:37;6.27;;;2.70;;
34565;SDS011;20803;42.676;26.348;2022-10-15T04:23:02;3.40;;;2.37;;
34565;SDS011;20803;42.676;26.348;2022-10-15T04:25:28;4.23;;;2.30;;
34565;SDS011;20803;42.676;26.348;2022-10-15T04:27:54;4.90;;;1.63;;
34565;SDS011;20803;42.676;26.348;2022-10-15T04:30:19;4.97;;;2.40;;
34565;SDS011;20803;42.676;26.348;2022-10-15T04:32:44;6.40;;;2.77;;
34565;SDS011;20803;42.676;26.348;2022-10-15T04:35:10;4.60;;;2.50;;
34565;SDS011;20803;42.676;26.348;2022-10-15T04:37:36;22.43;;;3.60;;
34565;SDS011;20803;42.676;26.348;2022-10-15T04:40:01;5.03;;;3.23;;
34565;SDS011;20803;42.676;26.348;2022-10-15T04:42:29;4.03;;;2.67;;
34565;SDS011;20803;42.676;26.348;2022-10-15T04:44:55;3.50;;;2.63;;
34565;SDS011;20803;42.676;26.348;2022-10-15T04:47:20;3.80;;;2.07;;
34565;SDS011;20803;42.676;26.348;2022-10-15T04:49:46;6.93;;;2.87;;
34565;SDS011;20803;42.676;26.348;2022-10-15T04:52:11;3.97;;;3.10;;
34565;SDS011;20803;42.676;26.348;2022-10-15T04:54:36;5.27;;;3.10;;
34565;SDS011;20803;42.676;26.348;2022-10-15T04:57:02;2.87;;;2.27;;
34565;SDS011;20803;42.676;26.348;2022-10-15T04:59:29;5.53;;;2.97;;
34565;SDS011;20803;42.676;26.348;2022-10-15T05:01:54;5.33;;;2.57;;
34565;SDS011;20803;42.676;26.348;2022-10-15T05:04:19;8.27;;;2.70;;
34565;SDS011;20803;42.676;26.348;2022-10-15T05:06:45;5.53;;;3.10;;
34565;SDS011;20803;42.676;26.348;2022-10-15T05:09:10;4.13;;;2.30;;
34565;SDS011;20803;42.676;26.348;2022-10-15T05:11:36;4.53;;;2.43;;
34565;SDS011;20803;42.676;26.348;2022-10-15T05:14:02;4.83;;;2.73;;
34565;SDS011;20803;42.676;26.348;2022-10-15T05:16:28;7.47;;;3.40;;
34565;SDS011;20803;42.676;26.348;2022-10-15T05:18:56;6.07;;;3.23;;
34565;SDS011;20803;42.676;26.348;2022-10-15T05:21:23;3.33;;;2.87;;
34565;SDS011;20803;42.676;26.348;2022-10-15T05:23:49;8.93;;;3.27;;
34565;SDS011;20803;42.676;26.348;2022-10-15T05:26:16;5.80;;;2.80;;
34565;SDS011;20803;42.676;26.348;2022-10-15T05:28:44;4.90;;;3.40;;
34565;SDS011;20803;42.676;26.348;2022-10-15T05:31:11;5.63;;;3.30;;
34565;SDS011;20803;42.676;26.348;2022-10-15T05:33:38;7.83;;;3.10;;
34565;SDS011;20803;42.676;26.348;2022-10-15T05:36:07;6.07;;;3.43;;
34565;SDS011;20803;42.676;26.348;2022-10-15T05:38:33;8.70;;;3.90;;
34565;SDS011;20803;42.676;26.348;2022-10-15T05:40:58;6.83;;;3.57;;
34565;SDS011;20803;42.676;26.348;2022-10-15T05:43:24;7.87;;;3.80;;
34565;SDS011;20803;42.676;26.348;2022-10-15T05:45:52;5.73;;;3.53;;
34565;SDS011;20803;42.676;26.348;2022-10-15T05:48:18;8.80;;;3.73;;
34565;SDS011;20803;42.676;26.348;2022-10-15T05:50:43;5.97;;;3.90;;
34565;SDS011;20803;42.676;26.348;2022-10-15T05:53:09;6.47;;;3.63;;
34565;SDS011;20803;42.676;26.348;2022-10-15T05:55:34;7.67;;;3.80;;
34565;SDS011;20803;42.676;26.348;2022-10-15T05:58:00;4.47;;;3.20;;
34565;SDS011;20803;42.676;26.348;2022-10-15T06:00:27;6.33;;;3.30;;
34565;SDS011;20803;42.676;26.348;2022-10-15T06:02:52;7.83;;;3.77;;
34565;SDS011;20803;42.676;26.348;2022-10-15T06:05:18;3.90;;;3.20;;
34565;SDS011;20803;42.676;26.348;2022-10-15T06:07:43;4.37;;;3.23;;
34565;SDS011;20803;42.676;26.348;2022-10-15T06:10:09;5.80;;;3.27;;
34565;SDS011;20803;42.676;26.348;2022-10-15T06:12:34;8.23;;;3.53;;
34565;SDS011;20803;42.676;26.348;2022-10-15T06:14:59;5.93;;;4.00;;
34565;SDS011;20803;42.676;26.348;2022-10-15T06:17:25;5.00;;;3.07;;
34565;SDS011;20803;42.676;26.348;2022-10-15T06:19:50;5.50;;;3.37;;
34565;SDS011;20803;42.676;26.348;2022-10-15T06:22:16;6.10;;;3.60;;
34565;SDS011;20803;42.676;26.348;2022-10-15T06:24:41;6.60;;;2.60;;
34565;SDS011;20803;42.676;26.348;2022-10-15T06:27:06;5.10;;;2.70;;
34565;SDS011;20803;42.676;26.348;2022-10-15T06:29:33;5.60;;;2.77;;
34565;SDS011;20803;42.676;26.348;2022-10-15T06:31:59;6.37;;;2.80;;
34565;SDS011;20803;42.676;26.348;2022-10-15T06:34:25;4.87;;;3.37;;
34565;SDS011;20803;42.676;26.348;2022-10-15T06:36:51;5.13;;;3.10;;
34565;SDS011;20803;42.676;26.348;2022-10-15T06:39:16;7.80;;;4.33;;
34565;SDS011;20803;42.676;26.348;2022-10-15T06:41:42;4.23;;;3.53;;
34565;SDS011;20803;42.676;26.348;2022-10-15T06:44:07;7.83;;;3.53;;
34565;SDS011;20803;42.676;26.348;2022-10-15T06:46:32;7.73;;;3.30;;
34565;SDS011;20803;42.676;26.348;2022-10-15T06:48:58;6.70;;;3.67;;
34565;SDS011;20803;42.676;26.348;2022-10-15T06:51:23;5.33;;;3.60;;
34565;SDS011;20803;42.676;26.348;2022-10-15T06:53:49;6.73;;;3.20;;
34565;SDS011;20803;42.676;26.348;2022-10-15T06:56:14;5.13;;;3.50;;
34565;SDS011;20803;42.676;26.348;2022-10-15T06:58:40;12.13;;;4.33;;
34565;SDS011;20803;42.676;26.348;2022-10-15T07:01:06;8.50;;;3.23;;
34565;SDS011;20803;42.676;26.348;2022-10-15T07:03:32;4.63;;;3.03;;
34565;SDS011;20803;42.676;26.348;2022-10-15T07:06:02;6.00;;;3.90;;
34565;SDS011;20803;42.676;26.348;2022-10-15T07:08:29;5.30;;;3.40;;
34565;SDS011;20803;42.676;26.348;2022-10-15T07:10:55;5.43;;;3.40;;
34565;SDS011;20803;42.676;26.348;2022-10-15T07:13:20;8.07;;;3.83;;
34565;SDS011;20803;42.676;26.348;2022-10-15T07:15:46;3.37;;;2.83;;
34565;SDS011;20803;42.676;26.348;2022-10-15T07:18:13;4.57;;;2.90;;
34565;SDS011;20803;42.676;26.348;2022-10-15T07:20:39;3.33;;;2.67;;
34565;SDS011;20803;42.676;26.348;2022-10-15T07:23:04;4.00;;;3.10;;
34565;SDS011;20803;42.676;26.348;2022-10-15T07:25:30;5.40;;;2.67;;
34565;SDS011;20803;42.676;26.348;2022-10-15T07:27:56;6.80;;;2.97;;
34565;SDS011;20803;42.676;26.348;2022-10-15T07:30:22;7.70;;;3.40;;
34565;SDS011;20803;42.676;26.348;2022-10-15T07:32:51;6.07;;;3.63;;
34565;SDS011;20803;42.676;26.348;2022-10-15T07:35:16;5.53;;;3.40;;
34565;SDS011;20803;42.676;26.348;2022-10-15T07:37:42;7.20;;;3.40;;
34565;SDS011;20803;42.676;26.348;2022-10-15T07:40:07;6.00;;;3.07;;
34565;SDS011;20803;42.676;26.348;2022-10-15T07:42:33;7.77;;;3.40;;
34565;SDS011;20803;42.676;26.348;2022-10-15T07:44:58;5.33;;;3.07;;
34565;SDS011;20803;42.676;26.348;2022-10-15T07:47:24;5.83;;;3.13;;
34565;SDS011;20803;42.676;26.348;2022-10-15T07:49:49;5.27;;;3.20;;
34565;SDS011;20803;42.676;26.348;2022-10-15T07:52:15;6.87;;;3.53;;
34565;SDS011;20803;42.676;26.348;2022-10-15T07:54:40;4.53;;;2.93;;
34565;SDS011;20803;42.676;26.348;2022-10-15T07:57:06;6.27;;;3.43;;
34565;SDS011;20803;42.676;26.348;2022-10-15T07:59:31;6.37;;;3.10;;
34565;SDS011;20803;42.676;26.348;2022-10-15T08:01:57;5.50;;;3.17;;
34565;SDS011;20803;42.676;26.348;2022-10-15T08:04:23;5.80;;;3.40;;
34565;SDS011;20803;42.676;26.348;2022-10-15T08:06:48;9.60;;;2.83;;
34565;SDS011;20803;42.676;26.348;2022-10-15T08:09:14;6.40;;;3.50;;
34565;SDS011;20803;42.676;26.348;2022-10-15T08:11:39;3.90;;;3.00;;
34565;SDS011;20803;42.676;26.348;2022-10-15T08:14:05;9.83;;;3.23;;
34565;SDS011;20803;42.676;26.348;2022-10-15T08:16:30;3.80;;;3.00;;
34565;SDS011;20803;42.676;26.348;2022-10-15T08:18:56;2.80;;;2.50;;
34565;SDS011;20803;42.676;26.348;2022-10-15T08:21:22;3.47;;;3.00;;
34565;SDS011;20803;42.676;26.348;2022-10-15T08:23:48;2.97;;;2.67;;
34565;SDS011;20803;42.676;26.348;2022-10-15T08:26:15;6.53;;;3.20;;
34565;SDS011;20803;42.676;26.348;2022-10-15T08:28:41;6.47;;;3.10;;
34565;SDS011;20803;42.676;26.348;2022-10-15T08:31:06;3.23;;;2.73;;
34565;SDS011;20803;42.676;26.348;2022-10-15T08:33:32;4.20;;;2.90;;
34565;SDS011;20803;42.676;26.348;2022-10-15T08:35:59;3.40;;;2.63;;
34565;SDS011;20803;42.676;26.348;2022-10-15T08:38:24;4.57;;;3.00;;
34565;SDS011;20803;42.676;26.348;2022-10-15T08:40:54;6.03;;;3.10;;
34565;SDS011;20803;42.676;26.348;2022-10-15T08:45:54;12.43;;;2.70;;
34565;SDS011;20803;42.676;26.348;2022-10-15T08:48:31;7.87;;;3.37;;
34565;SDS011;20803;42.676;26.348;2022-10-15T08:51:10;6.50;;;3.00;;
34565;SDS011;20803;42.676;26.348;2022-10-15T08:53:42;6.90;;;2.77;;
34565;SDS011;20803;42.676;26.348;2022-10-15T08:56:18;5.10;;;3.37;;
34565;SDS011;20803;42.676;26.348;2022-10-15T09:01:41;3.13;;;2.80;;
34565;SDS011;20803;42.676;26.348;2022-10-15T09:07:01;5.97;;;3.17;;
34565;SDS011;20803;42.676;26.348;2022-10-15T09:09:37;9.73;;;3.10;;
34565;SDS011;20803;42.676;26.348;2022-10-15T09:14:40;5.13;;;3.03;;
34565;SDS011;20803;42.676;26.348;2022-10-15T09:17:24;7.20;;;3.33;;
34565;SDS011;20803;42.676;26.348;2022-10-15T09:19:53;4.57;;;3.20;;
34565;SDS011;20803;42.676;26.348;2022-10-15T09:22:22;3.77;;;2.63;;
34565;SDS011;20803;42.676;26.348;2022-10-15T09:24:50;7.60;;;3.37;;
34565;SDS011;20803;42.676;26.348;2022-10-15T09:27:32;8.17;;;3.20;;
34565;SDS011;20803;42.676;26.348;2022-10-15T09:30:09;6.67;;;3.03;;
34565;SDS011;20803;42.676;26.348;2022-10-15T09:32:44;4.60;;;3.20;;
34565;SDS011;20803;42.676;26.348;2022-10-15T09:35:40;4.03;;;2.93;;
34565;SDS011;20803;42.676;26.348;2022-10-15T09:43:44;6.77;;;3.10;;
34565;SDS011;20803;42.676;26.348;2022-10-15T09:46:13;6.27;;;2.90;;
34565;SDS011;20803;42.676;26.348;2022-10-15T09:48:40;9.70;;;3.57;;
34565;SDS011;20803;42.676;26.348;2022-10-15T09:51:24;5.00;;;2.97;;
34565;SDS011;20803;42.676;26.348;2022-10-15T09:56:49;10.77;;;3.30;;
34565;SDS011;20803;42.676;26.348;2022-10-15T09:59:18;4.60;;;3.00;;
34565;SDS011;20803;42.676;26.348;2022-10-15T10:02:04;8.67;;;3.17;;
34565;SDS011;20803;42.676;26.348;2022-10-15T10:04:42;9.10;;;3.43;;
34565;SDS011;20803;42.676;26.348;2022-10-15T10:07:24;7.20;;;3.60;;
34565;SDS011;20803;42.676;26.348;2022-10-15T10:09:53;5.93;;;2.80;;
34565;SDS011;20803;42.676;26.348;2022-10-15T10:12:21;7.13;;;3.10;;
34565;SDS011;20803;42.676;26.348;2022-10-15T10:14:53;6.80;;;3.60;;
34565;SDS011;20803;42.676;26.348;2022-10-15T10:17:22;9.00;;;3.63;;
34565;SDS011;20803;42.676;26.348;2022-10-15T10:22:49;7.07;;;3.47;;
34565;SDS011;20803;42.676;26.348;2022-10-15T10:27:50;6.77;;;3.20;;
34565;SDS011;20803;42.676;26.348;2022-10-15T10:30:16;7.00;;;3.13;;
34565;SDS011;20803;42.676;26.348;2022-10-15T10:32:42;8.97;;;3.23;;
34565;SDS011;20803;42.676;26.348;2022-10-15T10:35:13;6.47;;;3.33;;
34565;SDS011;20803;42.676;26.348;2022-10-15T10:37:46;6.10;;;2.97;;
34565;SDS011;20803;42.676;26.348;2022-10-15T10:40:29;6.30;;;3.60;;
34565;SDS011;20803;42.676;26.348;2022-10-15T10:43:09;5.30;;;2.93;;
34565;SDS011;20803;42.676;26.348;2022-10-15T10:48:23;4.13;;;3.00;;
34565;SDS011;20803;42.676;26.348;2022-10-15T10:51:05;7.63;;;2.97;;
34565;SDS011;20803;42.676;26.348;2022-10-15T10:53:36;7.20;;;3.27;;
34565;SDS011;20803;42.676;26.348;2022-10-15T10:56:08;5.70;;;2.87;;
34565;SDS011;20803;42.676;26.348;2022-10-15T10:58:37;5.57;;;3.50;;
34565;SDS011;20803;42.676;26.348;2022-10-15T11:01:03;7.07;;;3.17;;
34565;SDS011;20803;42.676;26.348;2022-10-15T11:03:35;4.30;;;2.90;;
34565;SDS011;20803;42.676;26.348;2022-10-15T11:09:01;7.00;;;3.10;;
34565;SDS011;20803;42.676;26.348;2022-10-15T11:20:00;5.90;;;3.07;;
34565;SDS011;20803;42.676;26.348;2022-10-15T11:25:28;6.53;;;3.23;;
34565;SDS011;20803;42.676;26.348;2022-10-15T11:28:22;5.80;;;2.57;;
34565;SDS011;20803;42.676;26.348;2022-10-15T11:56:59;3.73;;;2.90;;
34565;SDS011;20803;42.676;26.348;2022-10-15T12:07:06;10.53;;;3.67;;
34565;SDS011;20803;42.676;26.348;2022-10-15T12:09:39;5.57;;;2.90;;
34565;SDS011;20803;42.676;26.348;2022-10-15T12:12:11;5.27;;;3.30;;
34565;SDS011;20803;42.676;26.348;2022-10-15T12:17:22;4.97;;;2.87;;
34565;SDS011;20803;42.676;26.348;2022-10-15T12:20:00;5.93;;;2.93;;
34565;SDS011;20803;42.676;26.348;2022-10-15T12:22:33;8.73;;;3.10;;
34565;SDS011;20803;42.676;26.348;2022-10-15T12:25:02;4.10;;;3.10;;
34565;SDS011;20803;42.676;26.348;2022-10-15T12:27:35;5.63;;;3.93;;
34565;SDS011;20803;42.676;26.348;2022-10-15T12:32:35;7.23;;;3.63;;
34565;SDS011;20803;42.676;26.348;2022-10-15T12:37:38;6.07;;;3.20;;
34565;SDS011;20803;42.676;26.348;2022-10-15T12:40:22;3.97;;;2.80;;
34565;SDS011;20803;42.676;26.348;2022-10-15T12:45:23;4.57;;;3.10;;
34565;SDS011;20803;42.676;26.348;2022-10-15T12:47:55;7.30;;;3.30;;
34565;SDS011;20803;42.676;26.348;2022-10-15T12:50:44;6.37;;;3.40;;
34565;SDS011;20803;42.676;26.348;2022-10-15T12:58:51;3.70;;;3.20;;
34565;SDS011;20803;42.676;26.348;2022-10-15T13:06:22;5.90;;;3.63;;
34565;SDS011;20803;42.676;26.348;2022-10-15T13:16:46;10.00;;;4.13;;
34565;SDS011;20803;42.676;26.348;2022-10-15T13:19:26;5.13;;;3.67;;
34565;SDS011;20803;42.676;26.348;2022-10-15T13:22:04;7.57;;;3.57;;
34565;SDS011;20803;42.676;26.348;2022-10-15T13:24:43;6.20;;;3.47;;
34565;SDS011;20803;42.676;26.348;2022-10-15T13:27:12;9.03;;;3.80;;
34565;SDS011;20803;42.676;26.348;2022-10-15T13:32:20;5.50;;;4.07;;
34565;SDS011;20803;42.676;26.348;2022-10-15T13:34:46;7.37;;;4.00;;
34565;SDS011;20803;42.676;26.348;2022-10-15T13:37:14;4.90;;;3.97;;
34565;SDS011;20803;42.676;26.348;2022-10-15T13:39:43;7.03;;;4.50;;
34565;SDS011;20803;42.676;26.348;2022-10-15T13:42:16;6.60;;;4.27;;
34565;SDS011;20803;42.676;26.348;2022-10-15T13:47:24;7.87;;;4.63;;
34565;SDS011;20803;42.676;26.348;2022-10-15T13:50:11;7.00;;;4.27;;
34565;SDS011;20803;42.676;26.348;2022-10-15T13:52:40;7.60;;;5.13;;
34565;SDS011;20803;42.676;26.348;2022-10-15T13:55:18;7.37;;;4.80;;
34565;SDS011;20803;42.676;26.348;2022-10-15T13:57:46;9.00;;;4.93;;
34565;SDS011;20803;42.676;26.348;2022-10-15T14:00:19;7.23;;;4.60;;
34565;SDS011;20803;42.676;26.348;2022-10-15T14:05:42;7.20;;;5.17;;
34565;SDS011;20803;42.676;26.348;2022-10-15T14:10:57;7.60;;;4.70;;
34565;SDS011;20803;42.676;26.348;2022-10-15T14:13:23;8.87;;;5.53;;
34565;SDS011;20803;42.676;26.348;2022-10-15T14:15:51;11.40;;;5.40;;
34565;SDS011;20803;42.676;26.348;2022-10-15T14:18:32;4.50;;;4.10;;
34565;SDS011;20803;42.676;26.348;2022-10-15T14:21:01;10.53;;;5.20;;
34565;SDS011;20803;42.676;26.348;2022-10-15T14:23:27;6.90;;;5.13;;
34565;SDS011;20803;42.676;26.348;2022-10-15T14:25:58;8.53;;;5.07;;
34565;SDS011;20803;42.676;26.348;2022-10-15T14:28:27;11.00;;;5.80;;
34565;SDS011;20803;42.676;26.348;2022-10-15T14:30:54;9.97;;;5.53;;
34565;SDS011;20803;42.676;26.348;2022-10-15T14:36:23;12.40;;;6.23;;
34565;SDS011;20803;42.676;26.348;2022-10-15T14:38:51;7.67;;;6.03;;
34565;SDS011;20803;42.676;26.348;2022-10-15T14:44:20;7.93;;;6.70;;
34565;SDS011;20803;42.676;26.348;2022-10-15T14:46:46;9.00;;;6.73;;
34565;SDS011;20803;42.676;26.348;2022-10-15T14:49:27;8.47;;;6.97;;
34565;SDS011;20803;42.676;26.348;2022-10-15T14:51:58;7.63;;;6.53;;
34565;SDS011;20803;42.676;26.348;2022-10-15T14:54:27;9.87;;;5.97;;
34565;SDS011;20803;42.676;26.348;2022-10-15T14:56:58;7.10;;;6.40;;
34565;SDS011;20803;42.676;26.348;2022-10-15T14:59:27;6.70;;;5.43;;
34565;SDS011;20803;42.676;26.348;2022-10-15T15:01:55;7.43;;;5.70;;
34565;SDS011;20803;42.676;26.348;2022-10-15T15:07:05;5.87;;;5.17;;
34565;SDS011;20803;42.676;26.348;2022-10-15T15:09:35;7.47;;;5.67;;
34565;SDS011;20803;42.676;26.348;2022-10-15T15:12:03;10.50;;;5.60;;
34565;SDS011;20803;42.676;26.348;2022-10-15T15:14:29;7.40;;;5.73;;
34565;SDS011;20803;42.676;26.348;2022-10-15T15:16:55;5.17;;;4.67;;
34565;SDS011;20803;42.676;26.348;2022-10-15T15:19:20;7.87;;;5.27;;
34565;SDS011;20803;42.676;26.348;2022-10-15T15:21:46;5.93;;;5.17;;
34565;SDS011;20803;42.676;26.348;2022-10-15T15:24:11;6.53;;;4.83;;
34565;SDS011;20803;42.676;26.348;2022-10-15T15:26:37;6.33;;;4.57;;
34565;SDS011;20803;42.676;26.348;2022-10-15T15:29:04;6.90;;;5.37;;
34565;SDS011;20803;42.676;26.348;2022-10-15T15:31:36;6.17;;;4.60;;
34565;SDS011;20803;42.676;26.348;2022-10-15T15:34:02;6.07;;;4.93;;
34565;SDS011;20803;42.676;26.348;2022-10-15T15:36:27;7.33;;;5.10;;
34565;SDS011;20803;42.676;26.348;2022-10-15T15:38:53;5.77;;;4.67;;
34565;SDS011;20803;42.676;26.348;2022-10-15T15:41:22;5.47;;;4.67;;
34565;SDS011;20803;42.676;26.348;2022-10-15T15:43:49;9.47;;;5.03;;
34565;SDS011;20803;42.676;26.348;2022-10-15T15:46:16;8.33;;;5.10;;
34565;SDS011;20803;42.676;26.348;2022-10-15T15:48:41;7.30;;;5.07;;
34565;SDS011;20803;42.676;26.348;2022-10-15T15:51:12;7.37;;;4.87;;
34565;SDS011;20803;42.676;26.348;2022-10-15T15:53:48;14.80;;;4.83;;
34565;SDS011;20803;42.676;26.348;2022-10-15T15:56:14;7.07;;;4.50;;
34565;SDS011;20803;42.676;26.348;2022-10-15T15:58:39;6.93;;;4.83;;
34565;SDS011;20803;42.676;26.348;2022-10-15T16:01:05;8.87;;;5.20;;
34565;SDS011;20803;42.676;26.348;2022-10-15T16:03:30;9.47;;;4.80;;
34565;SDS011;20803;42.676;26.348;2022-10-15T16:05:55;7.60;;;4.50;;
34565;SDS011;20803;42.676;26.348;2022-10-15T16:08:21;10.43;;;5.00;;
34565;SDS011;20803;42.676;26.348;2022-10-15T16:10:46;9.67;;;5.20;;
34565;SDS011;20803;42.676;26.348;2022-10-15T16:13:12;7.87;;;5.40;;
34565;SDS011;20803;42.676;26.348;2022-10-15T16:15:37;9.33;;;5.37;;
34565;SDS011;20803;42.676;26.348;2022-10-15T16:18:03;8.33;;;5.53;;
34565;SDS011;20803;42.676;26.348;2022-10-15T16:20:28;7.17;;;5.27;;
34565;SDS011;20803;42.676;26.348;2022-10-15T16:22:54;8.67;;;5.17;;
34565;SDS011;20803;42.676;26.348;2022-10-15T16:25:19;8.33;;;4.83;;
34565;SDS011;20803;42.676;26.348;2022-10-15T16:27:45;11.00;;;4.93;;
34565;SDS011;20803;42.676;26.348;2022-10-15T16:30:15;6.20;;;4.70;;
34565;SDS011;20803;42.676;26.348;2022-10-15T16:32:42;15.03;;;5.20;;
34565;SDS011;20803;42.676;26.348;2022-10-15T16:35:08;7.70;;;4.27;;
34565;SDS011;20803;42.676;26.348;2022-10-15T16:37:33;8.10;;;5.10;;
34565;SDS011;20803;42.676;26.348;2022-10-15T16:39:59;7.37;;;4.83;;
34565;SDS011;20803;42.676;26.348;2022-10-15T16:42:24;8.10;;;4.70;;
34565;SDS011;20803;42.676;26.348;2022-10-15T16:44:50;8.90;;;5.60;;
34565;SDS011;20803;42.676;26.348;2022-10-15T16:47:16;9.47;;;4.70;;
34565;SDS011;20803;42.676;26.348;2022-10-15T16:49:42;8.37;;;5.17;;
34565;SDS011;20803;42.676;26.348;2022-10-15T16:52:07;9.03;;;5.60;;
34565;SDS011;20803;42.676;26.348;2022-10-15T16:54:33;6.87;;;5.17;;
34565;SDS011;20803;42.676;26.348;2022-10-15T16:56:59;12.77;;;5.93;;
34565;SDS011;20803;42.676;26.348;2022-10-15T16:59:24;8.10;;;4.87;;
34565;SDS011;20803;42.676;26.348;2022-10-15T17:01:50;7.40;;;4.60;;
34565;SDS011;20803;42.676;26.348;2022-10-15T17:04:15;7.30;;;4.80;;
34565;SDS011;20803;42.676;26.348;2022-10-15T17:06:41;6.67;;;5.10;;
34565;SDS011;20803;42.676;26.348;2022-10-15T17:09:06;8.30;;;5.17;;
34565;SDS011;20803;42.676;26.348;2022-10-15T17:11:33;7.60;;;4.83;;
34565;SDS011;20803;42.676;26.348;2022-10-15T17:14:05;4.93;;;4.43;;
34565;SDS011;20803;42.676;26.348;2022-10-15T17:16:33;6.07;;;4.70;;
34565;SDS011;20803;42.676;26.348;2022-10-15T17:19:02;6.60;;;4.93;;